sensor_id;sensor_type;location;lat;lon;timestamp;pressure;altitude;pressure_sealevel;temperature;humidity
71805;BME280;59654;52.216;5.616;2022-07-03T00:00:04;101601.50;;;14.84;88.87
71805;BME280;59654;52.216;5.616;2022-07-03T00:00:42;101594.22;;;14.86;89.30
71805;BME280;59654;52.216;5.616;2022-07-03T00:01:12;101598.53;;;14.90;89.67
71805;BME280;59654;52.216;5.616;2022-07-03T00:01:43;101595.72;;;14.93;88.66
71805;BME280;59654;52.216;5.616;2022-07-03T00:02:14;101592.94;;;14.95;89.01
71805;BME280;59654;52.216;5.616;2022-07-03T00:02:45;101586.50;;;14.99;87.70
71805;BME280;59654;52.216;5.616;2022-07-03T00:03:16;101597.97;;;15.02;87.21
71805;BME280;59654;52.216;5.616;2022-07-03T00:03:46;101592.47;;;15.05;87.92
71805;BME280;59654;52.216;5.616;2022-07-03T00:04:17;101584.28;;;15.08;87.83
71805;BME280;59654;52.216;5.616;2022-07-03T00:04:50;101588.63;;;15.11;87.09
71805;BME280;59654;52.216;5.616;2022-07-03T00:05:21;101587.63;;;15.13;87.05
71805;BME280;59654;52.216;5.616;2022-07-03T00:05:52;101582.25;;;15.13;87.64
71805;BME280;59654;52.216;5.616;2022-07-03T00:06:23;101586.69;;;15.14;87.36
71805;BME280;59654;52.216;5.616;2022-07-03T00:06:55;101591.25;;;15.12;87.88
71805;BME280;59654;52.216;5.616;2022-07-03T00:07:25;101585.94;;;15.11;87.66
71805;BME280;59654;52.216;5.616;2022-07-03T00:07:56;101589.66;;;15.08;87.36
71805;BME280;59654;52.216;5.616;2022-07-03T00:08:27;101593.34;;;15.06;87.54
71805;BME280;59654;52.216;5.616;2022-07-03T00:08:59;101587.22;;;15.02;87.82
71805;BME280;59654;52.216;5.616;2022-07-03T00:09:30;101598.13;;;14.99;88.11
71805;BME280;59654;52.216;5.616;2022-07-03T00:10:01;101591.16;;;14.95;88.42
71805;BME280;59654;52.216;5.616;2022-07-03T00:10:33;101593.03;;;14.93;88.52
71805;BME280;59654;52.216;5.616;2022-07-03T00:11:05;101590.59;;;14.87;89.33
71805;BME280;59654;52.216;5.616;2022-07-03T00:11:36;101593.50;;;14.82;88.44
71805;BME280;59654;52.216;5.616;2022-07-03T00:12:07;101595.44;;;14.79;88.73
71805;BME280;59654;52.216;5.616;2022-07-03T00:12:39;101592.94;;;14.74;88.66
71805;BME280;59654;52.216;5.616;2022-07-03T00:13:10;101599.47;;;14.69;89.08
71805;BME280;59654;52.216;5.616;2022-07-03T00:13:42;101596.13;;;14.62;88.43
71805;BME280;59654;52.216;5.616;2022-07-03T00:14:13;101591.03;;;14.56;89.81
71805;BME280;59654;52.216;5.616;2022-07-03T00:14:44;101594.94;;;14.49;88.85
71805;BME280;59654;52.216;5.616;2022-07-03T00:15:14;101604.16;;;14.42;88.54
71805;BME280;59654;52.216;5.616;2022-07-03T00:15:45;101599.06;;;14.36;89.46
71805;BME280;59654;52.216;5.616;2022-07-03T00:16:16;101603.81;;;14.29;89.63
71805;BME280;59654;52.216;5.616;2022-07-03T00:16:47;101606.63;;;14.26;89.89
71805;BME280;59654;52.216;5.616;2022-07-03T00:17:18;101605.06;;;14.21;90.66
71805;BME280;59654;52.216;5.616;2022-07-03T00:17:49;101598.97;;;14.17;90.25
71805;BME280;59654;52.216;5.616;2022-07-03T00:18:20;101607.13;;;14.14;90.68
71805;BME280;59654;52.216;5.616;2022-07-03T00:18:51;101602.75;;;14.11;90.92
71805;BME280;59654;52.216;5.616;2022-07-03T00:19:22;101601.94;;;14.09;90.48
71805;BME280;59654;52.216;5.616;2022-07-03T00:19:54;101603.81;;;14.07;90.77
71805;BME280;59654;52.216;5.616;2022-07-03T00:20:30;101611.03;;;14.05;91.46
71805;BME280;59654;52.216;5.616;2022-07-03T00:21:25;101600.53;;;14.01;91.56
71805;BME280;59654;52.216;5.616;2022-07-03T00:22:04;101607.75;;;13.99;92.41
71805;BME280;59654;52.216;5.616;2022-07-03T00:22:41;101606.00;;;13.98;92.10
71805;BME280;59654;52.216;5.616;2022-07-03T00:23:17;101609.66;;;13.95;91.42
71805;BME280;59654;52.216;5.616;2022-07-03T00:24:51;101594.34;;;13.99;91.76
71805;BME280;59654;52.216;5.616;2022-07-03T00:25:23;101608.19;;;14.10;91.62
71805;BME280;59654;52.216;5.616;2022-07-03T00:25:54;101596.50;;;14.11;90.92
71805;BME280;59654;52.216;5.616;2022-07-03T00:26:30;101602.63;;;14.14;90.53
71805;BME280;59654;52.216;5.616;2022-07-03T00:27:08;101596.22;;;14.19;89.58
71805;BME280;59654;52.216;5.616;2022-07-03T00:27:40;101599.63;;;14.22;89.50
71805;BME280;59654;52.216;5.616;2022-07-03T00:28:14;101596.75;;;14.27;89.70
71805;BME280;59654;52.216;5.616;2022-07-03T00:28:45;101594.94;;;14.27;89.04
71805;BME280;59654;52.216;5.616;2022-07-03T00:29:22;101597.50;;;14.30;89.11
71805;BME280;59654;52.216;5.616;2022-07-03T00:29:58;101590.22;;;14.34;89.34
71805;BME280;59654;52.216;5.616;2022-07-03T00:30:30;101594.59;;;14.36;88.90
71805;BME280;59654;52.216;5.616;2022-07-03T00:31:01;101595.31;;;14.40;89.18
71805;BME280;59654;52.216;5.616;2022-07-03T00:31:33;101592.56;;;14.41;88.83
71805;BME280;59654;52.216;5.616;2022-07-03T00:32:06;101590.63;;;14.45;89.06
71805;BME280;59654;52.216;5.616;2022-07-03T00:32:40;101589.63;;;14.47;88.93
71805;BME280;59654;52.216;5.616;2022-07-03T00:33:14;101592.25;;;14.49;88.50
71805;BME280;59654;52.216;5.616;2022-07-03T00:33:45;101593.94;;;14.52;87.70
71805;BME280;59654;52.216;5.616;2022-07-03T00:34:17;101585.81;;;14.53;88.89
71805;BME280;59654;52.216;5.616;2022-07-03T00:34:50;101589.28;;;14.55;88.33
71805;BME280;59654;52.216;5.616;2022-07-03T00:35:23;101587.47;;;14.56;87.79
71805;BME280;59654;52.216;5.616;2022-07-03T00:35:55;101592.78;;;14.57;87.95
71805;BME280;59654;52.216;5.616;2022-07-03T00:36:29;101595.41;;;14.59;87.63
71805;BME280;59654;52.216;5.616;2022-07-03T00:37:08;101594.47;;;14.60;87.37
71805;BME280;59654;52.216;5.616;2022-07-03T00:37:39;101597.09;;;14.61;87.63
71805;BME280;59654;52.216;5.616;2022-07-03T00:38:13;101597.94;;;14.62;87.73
71805;BME280;59654;52.216;5.616;2022-07-03T00:38:44;101593.44;;;14.64;86.47
71805;BME280;59654;52.216;5.616;2022-07-03T00:39:15;101596.06;;;14.65;86.26
71805;BME280;59654;52.216;5.616;2022-07-03T00:39:46;101594.25;;;14.66;86.41
71805;BME280;59654;52.216;5.616;2022-07-03T00:40:19;101596.94;;;14.66;86.38
71805;BME280;59654;52.216;5.616;2022-07-03T00:40:49;101593.31;;;14.67;86.88
71805;BME280;59654;52.216;5.616;2022-07-03T00:41:31;101601.28;;;14.68;86.82
71805;BME280;59654;52.216;5.616;2022-07-03T00:42:05;101599.47;;;14.69;87.12
71805;BME280;59654;52.216;5.616;2022-07-03T00:42:38;101592.22;;;14.71;86.30
71805;BME280;59654;52.216;5.616;2022-07-03T00:43:15;101609.13;;;14.73;86.13
71805;BME280;59654;52.216;5.616;2022-07-03T00:43:47;101600.19;;;14.72;87.45
71805;BME280;59654;52.216;5.616;2022-07-03T00:44:18;101605.63;;;14.71;86.45
71805;BME280;59654;52.216;5.616;2022-07-03T00:44:54;101592.38;;;14.68;87.49
71805;BME280;59654;52.216;5.616;2022-07-03T00:45:27;101606.78;;;14.65;87.55
71805;BME280;59654;52.216;5.616;2022-07-03T00:46:07;101598.94;;;14.59;88.07
71805;BME280;59654;52.216;5.616;2022-07-03T00:46:41;101609.88;;;14.55;88.14
71805;BME280;59654;52.216;5.616;2022-07-03T00:47:17;101604.78;;;14.48;88.33
71805;BME280;59654;52.216;5.616;2022-07-03T00:47:49;101605.03;;;14.42;88.09
71805;BME280;59654;52.216;5.616;2022-07-03T00:48:20;101607.91;;;14.38;88.50
71805;BME280;59654;52.216;5.616;2022-07-03T00:48:53;101610.81;;;14.33;89.56
71805;BME280;59654;52.216;5.616;2022-07-03T00:49:24;101603.81;;;14.29;89.02
71805;BME280;59654;52.216;5.616;2022-07-03T00:49:56;101603.19;;;14.23;88.63
71805;BME280;59654;52.216;5.616;2022-07-03T00:50:34;101602.50;;;14.18;89.52
71805;BME280;59654;52.216;5.616;2022-07-03T00:51:06;101602.63;;;14.14;89.57
71805;BME280;59654;52.216;5.616;2022-07-03T00:51:39;101602.75;;;14.11;90.14
71805;BME280;59654;52.216;5.616;2022-07-03T00:52:15;101602.75;;;14.11;90.06
71805;BME280;59654;52.216;5.616;2022-07-03T00:52:50;101599.13;;;14.12;90.27
71805;BME280;59654;52.216;5.616;2022-07-03T00:53:32;101600.81;;;14.15;89.71
71805;BME280;59654;52.216;5.616;2022-07-03T00:54:03;101604.31;;;14.17;89.08
71805;BME280;59654;52.216;5.616;2022-07-03T00:54:35;101602.44;;;14.19;89.20
71805;BME280;59654;52.216;5.616;2022-07-03T00:55:15;101604.97;;;14.22;89.04
71805;BME280;59654;52.216;5.616;2022-07-03T00:55:47;101597.69;;;14.26;89.85
71805;BME280;59654;52.216;5.616;2022-07-03T00:56:23;101599.38;;;14.28;88.94
71805;BME280;59654;52.216;5.616;2022-07-03T00:56:59;101602.88;;;14.30;88.71
71805;BME280;59654;52.216;5.616;2022-07-03T00:57:32;101602.75;;;14.33;88.81
71805;BME280;59654;52.216;5.616;2022-07-03T00:58:03;101601.81;;;14.34;88.74
71805;BME280;59654;52.216;5.616;2022-07-03T00:58:36;101599.94;;;14.36;87.98
71805;BME280;59654;52.216;5.616;2022-07-03T00:59:08;101600.72;;;14.38;87.40
71805;BME280;59654;52.216;5.616;2022-07-03T00:59:38;101601.53;;;14.40;87.88
71805;BME280;59654;52.216;5.616;2022-07-03T01:00:10;101599.78;;;14.39;87.39
71805;BME280;59654;52.216;5.616;2022-07-03T01:00:41;101599.72;;;14.41;87.20
71805;BME280;59654;52.216;5.616;2022-07-03T01:01:18;101597.03;;;14.41;86.64
71805;BME280;59654;52.216;5.616;2022-07-03T01:01:55;101592.56;;;14.41;86.63
71805;BME280;59654;52.216;5.616;2022-07-03T01:03:20;101601.41;;;14.43;86.11
71805;BME280;59654;52.216;5.616;2022-07-03T01:05:39;101595.13;;;14.44;86.63
71805;BME280;59654;52.216;5.616;2022-07-03T01:06:15;101599.53;;;14.45;86.12
71805;BME280;59654;52.216;5.616;2022-07-03T01:06:57;101599.53;;;14.45;86.03
71805;BME280;59654;52.216;5.616;2022-07-03T01:07:41;101591.44;;;14.47;86.36
71805;BME280;59654;52.216;5.616;2022-07-03T01:08:43;101585.94;;;14.50;85.49
71805;BME280;59654;52.216;5.616;2022-07-03T01:09:26;101593.94;;;14.52;85.48
71805;BME280;59654;52.216;5.616;2022-07-03T01:10:11;101593.88;;;14.53;86.15
71805;BME280;59654;52.216;5.616;2022-07-03T01:11:06;101600.16;;;14.52;85.61
71805;BME280;59654;52.216;5.616;2022-07-03T01:12:02;101593.94;;;14.52;84.97
71805;BME280;59654;52.216;5.616;2022-07-03T01:15:28;101595.00;;;14.47;85.52
71805;BME280;59654;52.216;5.616;2022-07-03T01:16:13;101586.94;;;14.47;85.89
71805;BME280;59654;52.216;5.616;2022-07-03T01:18:01;101597.72;;;14.46;85.58
71805;BME280;59654;52.216;5.616;2022-07-03T01:18:45;101594.25;;;14.44;85.55
71805;BME280;59654;52.216;5.616;2022-07-03T01:19:35;101596.94;;;14.44;84.99
71805;BME280;59654;52.216;5.616;2022-07-03T01:20:17;101590.75;;;14.42;84.71
71805;BME280;59654;52.216;5.616;2022-07-03T01:21:04;101598.78;;;14.42;84.92
71805;BME280;59654;52.216;5.616;2022-07-03T01:23:00;101593.56;;;14.39;84.63
71805;BME280;59654;52.216;5.616;2022-07-03T01:23:58;101598.97;;;14.37;85.15
71805;BME280;59654;52.216;5.616;2022-07-03T01:25:14;101595.56;;;14.34;84.27
71805;BME280;59654;52.216;5.616;2022-07-03T01:26:11;101588.53;;;14.31;84.78
71805;BME280;59654;52.216;5.616;2022-07-03T01:26:47;101587.72;;;14.29;85.11
71805;BME280;59654;52.216;5.616;2022-07-03T01:27:27;101591.31;;;14.28;85.54
71805;BME280;59654;52.216;5.616;2022-07-03T01:28:20;101591.38;;;14.27;85.07
71805;BME280;59654;52.216;5.616;2022-07-03T01:28:59;101596.81;;;14.25;85.16
71805;BME280;59654;52.216;5.616;2022-07-03T01:30:13;101595.00;;;14.26;85.13
71805;BME280;59654;52.216;5.616;2022-07-03T01:30:48;101588.81;;;14.24;85.82
71805;BME280;59654;52.216;5.616;2022-07-03T01:31:21;101593.31;;;14.23;85.93
71805;BME280;59654;52.216;5.616;2022-07-03T01:31:54;101596.00;;;14.23;84.93
71805;BME280;59654;52.216;5.616;2022-07-03T01:32:32;101588.88;;;14.22;85.34
71805;BME280;59654;52.216;5.616;2022-07-03T01:33:24;101584.34;;;14.24;85.24
71805;BME280;59654;52.216;5.616;2022-07-03T01:33:58;101588.81;;;14.24;85.71
71805;BME280;59654;52.216;5.616;2022-07-03T01:34:34;101588.81;;;14.24;86.14
71805;BME280;59654;52.216;5.616;2022-07-03T01:35:21;101590.63;;;14.23;85.33
71805;BME280;59654;52.216;5.616;2022-07-03T01:36:07;101587.94;;;14.23;85.72
71805;BME280;59654;52.216;5.616;2022-07-03T01:36:41;101592.50;;;14.21;86.07
71805;BME280;59654;52.216;5.616;2022-07-03T01:37:15;101589.81;;;14.21;85.65
71805;BME280;59654;52.216;5.616;2022-07-03T01:37:48;101584.63;;;14.18;84.75
71805;BME280;59654;52.216;5.616;2022-07-03T01:38:21;101591.78;;;14.18;85.26
71805;BME280;59654;52.216;5.616;2022-07-03T01:38:56;101593.59;;;14.17;84.96
71805;BME280;59654;52.216;5.616;2022-07-03T01:39:36;101588.28;;;14.16;85.91
71805;BME280;59654;52.216;5.616;2022-07-03T01:40:14;101588.28;;;14.16;85.34
71805;BME280;59654;52.216;5.616;2022-07-03T01:40:49;101591.03;;;14.14;84.83
71805;BME280;59654;52.216;5.616;2022-07-03T01:41:24;101586.59;;;14.13;85.54
71805;BME280;59654;52.216;5.616;2022-07-03T01:42:00;101594.59;;;14.14;85.28
71805;BME280;59654;52.216;5.616;2022-07-03T01:42:36;101589.28;;;14.13;85.96
71805;BME280;59654;52.216;5.616;2022-07-03T01:43:12;101585.66;;;14.14;85.15
71805;BME280;59654;52.216;5.616;2022-07-03T01:43:48;101592.78;;;14.15;85.89
71805;BME280;59654;52.216;5.616;2022-07-03T01:44:21;101587.47;;;14.13;86.14
71805;BME280;59654;52.216;5.616;2022-07-03T01:44:58;101589.28;;;14.13;85.88
71805;BME280;59654;52.216;5.616;2022-07-03T01:45:32;101587.47;;;14.13;85.41
71805;BME280;59654;52.216;5.616;2022-07-03T01:46:07;101580.38;;;14.12;85.38
71805;BME280;59654;52.216;5.616;2022-07-03T01:46:37;101591.16;;;14.11;85.44
71805;BME280;59654;52.216;5.616;2022-07-03T01:47:09;101593.84;;;14.11;85.30
71805;BME280;59654;52.216;5.616;2022-07-03T01:47:41;101585.84;;;14.09;86.01
71805;BME280;59654;52.216;5.616;2022-07-03T01:48:14;101586.78;;;14.08;85.17
71805;BME280;59654;52.216;5.616;2022-07-03T01:48:46;101585.97;;;14.06;86.38
71805;BME280;59654;52.216;5.616;2022-07-03T01:49:18;101586.91;;;14.05;85.56
71805;BME280;59654;52.216;5.616;2022-07-03T01:49:49;101589.69;;;14.04;85.65
71805;BME280;59654;52.216;5.616;2022-07-03T01:50:21;101587.94;;;14.03;84.87
71805;BME280;59654;52.216;5.616;2022-07-03T01:50:55;101587.09;;;14.01;85.08
71805;BME280;59654;52.216;5.616;2022-07-03T01:51:27;101583.50;;;14.02;84.63
71805;BME280;59654;52.216;5.616;2022-07-03T01:52:01;101586.28;;;13.99;85.43
71805;BME280;59654;52.216;5.616;2022-07-03T01:52:32;101581.00;;;13.97;85.38
71805;BME280;59654;52.216;5.616;2022-07-03T01:53:07;101583.69;;;13.97;84.56
71805;BME280;59654;52.216;5.616;2022-07-03T01:53:44;101580.19;;;13.95;86.02
71805;BME280;59654;52.216;5.616;2022-07-03T01:54:17;101575.81;;;13.93;85.35
71805;BME280;59654;52.216;5.616;2022-07-03T01:54:49;101575.88;;;13.91;85.34
71805;BME280;59654;52.216;5.616;2022-07-03T01:55:23;101577.66;;;13.91;85.49
71805;BME280;59654;52.216;5.616;2022-07-03T01:55:57;101583.97;;;13.90;85.25
71805;BME280;59654;52.216;5.616;2022-07-03T01:56:32;101587.59;;;13.89;85.50
71805;BME280;59654;52.216;5.616;2022-07-03T01:57:05;101578.75;;;13.87;85.11
71805;BME280;59654;52.216;5.616;2022-07-03T01:57:48;101572.59;;;13.85;85.07
71805;BME280;59654;52.216;5.616;2022-07-03T01:58:21;101581.56;;;13.84;85.52
71805;BME280;59654;52.216;5.616;2022-07-03T01:58:52;101586.03;;;13.83;86.21
71805;BME280;59654;52.216;5.616;2022-07-03T01:59:22;101576.31;;;13.81;86.04
71805;BME280;59654;52.216;5.616;2022-07-03T01:59:59;101584.34;;;13.81;85.84
71805;BME280;59654;52.216;5.616;2022-07-03T02:00:31;101582.59;;;13.79;85.70
71805;BME280;59654;52.216;5.616;2022-07-03T02:01:20;101579.97;;;13.78;85.51
71805;BME280;59654;52.216;5.616;2022-07-03T02:02:04;101577.34;;;13.76;85.72
71805;BME280;59654;52.216;5.616;2022-07-03T02:02:50;101579.16;;;13.76;86.26
71805;BME280;59654;52.216;5.616;2022-07-03T02:03:35;101572.06;;;13.75;86.23
71805;BME280;59654;52.216;5.616;2022-07-03T02:04:13;101581.91;;;13.74;86.09
71805;BME280;59654;52.216;5.616;2022-07-03T02:05:02;101574.78;;;13.73;86.21
71805;BME280;59654;52.216;5.616;2022-07-03T02:05:48;101581.03;;;13.74;85.99
71805;BME280;59654;52.216;5.616;2022-07-03T02:07:35;101575.66;;;13.74;86.20
71805;BME280;59654;52.216;5.616;2022-07-03T02:09:04;101573.13;;;13.71;86.23
71805;BME280;59654;52.216;5.616;2022-07-03T02:10:02;101569.59;;;13.70;85.33
71805;BME280;59654;52.216;5.616;2022-07-03T02:10:42;101568.75;;;13.68;85.26
71805;BME280;59654;52.216;5.616;2022-07-03T02:11:20;101568.81;;;13.67;85.07
71805;BME280;59654;52.216;5.616;2022-07-03T02:11:52;101563.56;;;13.64;85.62
71805;BME280;59654;52.216;5.616;2022-07-03T02:12:27;101560.91;;;13.62;85.92
71805;BME280;59654;52.216;5.616;2022-07-03T02:13:23;101561.03;;;13.59;85.78
71805;BME280;59654;52.216;5.616;2022-07-03T02:14:14;101558.56;;;13.55;85.26
71805;BME280;59654;52.216;5.616;2022-07-03T02:15:05;101557.75;;;13.53;86.36
71805;BME280;59654;52.216;5.616;2022-07-03T02:15:42;101557.81;;;13.51;85.52
71805;BME280;59654;52.216;5.616;2022-07-03T02:16:19;101557.84;;;13.50;86.21
71805;BME280;59654;52.216;5.616;2022-07-03T02:17:18;101557.09;;;13.46;86.35
71805;BME280;59654;52.216;5.616;2022-07-03T02:17:51;101550.88;;;13.45;85.63
71805;BME280;59654;52.216;5.616;2022-07-03T02:18:29;101561.63;;;13.44;85.52
71805;BME280;59654;52.216;5.616;2022-07-03T02:19:05;101550.09;;;13.42;85.41
71805;BME280;59654;52.216;5.616;2022-07-03T02:20:03;101553.72;;;13.41;86.27
71805;BME280;59654;52.216;5.616;2022-07-03T02:20:45;101552.94;;;13.39;86.18
71805;BME280;59654;52.216;5.616;2022-07-03T02:21:19;101561.91;;;13.38;86.39
71805;BME280;59654;52.216;5.616;2022-07-03T02:21:51;101556.53;;;13.38;86.16
71805;BME280;59654;52.216;5.616;2022-07-03T02:22:31;101555.72;;;13.36;85.74
71805;BME280;59654;52.216;5.616;2022-07-03T02:23:05;101561.94;;;13.36;86.32
71805;BME280;59654;52.216;5.616;2022-07-03T02:24:19;101556.75;;;13.32;87.29
71805;BME280;59654;52.216;5.616;2022-07-03T02:24:50;101559.44;;;13.32;86.25
71805;BME280;59654;52.216;5.616;2022-07-03T02:25:23;101565.72;;;13.31;86.66
71805;BME280;59654;52.216;5.616;2022-07-03T02:26:02;101560.31;;;13.32;87.10
71805;BME280;59654;52.216;5.616;2022-07-03T02:26:38;101557.69;;;13.31;86.94
71805;BME280;59654;52.216;5.616;2022-07-03T02:27:20;101563.91;;;13.31;87.31
71805;BME280;59654;52.216;5.616;2022-07-03T02:28:08;101571.03;;;13.32;86.82
71805;BME280;59654;52.216;5.616;2022-07-03T02:28:58;101559.38;;;13.33;87.48
71805;BME280;59654;52.216;5.616;2022-07-03T02:30:01;101565.63;;;13.34;87.36
71805;BME280;59654;52.216;5.616;2022-07-03T02:30:36;101565.63;;;13.34;86.11
71805;BME280;59654;52.216;5.616;2022-07-03T02:31:16;101570.91;;;13.35;86.47
71805;BME280;59654;52.216;5.616;2022-07-03T02:32:04;101564.69;;;13.35;86.05
71805;BME280;59654;52.216;5.616;2022-07-03T02:32:44;101570.97;;;13.34;86.25
71805;BME280;59654;52.216;5.616;2022-07-03T02:33:24;101572.72;;;13.35;85.70
71805;BME280;59654;52.216;5.616;2022-07-03T02:33:58;101567.41;;;13.33;86.17
71805;BME280;59654;52.216;5.616;2022-07-03T02:34:31;101576.38;;;13.32;86.36
71805;BME280;59654;52.216;5.616;2022-07-03T02:35:07;101572.88;;;13.30;86.49
71805;BME280;59654;52.216;5.616;2022-07-03T02:35:41;101571.19;;;13.28;86.09
71805;BME280;59654;52.216;5.616;2022-07-03T02:36:14;101572.19;;;13.25;85.64
71805;BME280;59654;52.216;5.616;2022-07-03T02:36:50;101574.06;;;13.23;86.03
71805;BME280;59654;52.216;5.616;2022-07-03T02:37:23;101568.00;;;13.18;86.20
71805;BME280;59654;52.216;5.616;2022-07-03T02:38:43;101569.09;;;13.13;85.65
71805;BME280;59654;52.216;5.616;2022-07-03T02:39:29;101565.66;;;13.09;85.70
71805;BME280;59654;52.216;5.616;2022-07-03T02:40:17;101563.97;;;13.06;85.99
71805;BME280;59654;52.216;5.616;2022-07-03T02:40:57;101564.09;;;13.03;85.41
71805;BME280;59654;52.216;5.616;2022-07-03T02:42:03;101571.41;;;12.98;85.75
71805;BME280;59654;52.216;5.616;2022-07-03T02:44:42;101564.41;;;12.94;86.95
71805;BME280;59654;52.216;5.616;2022-07-03T02:44:59;101563.53;;;12.94;86.35
71805;BME280;59654;52.216;5.616;2022-07-03T02:45:42;101565.22;;;12.96;86.28
71805;BME280;59654;52.216;5.616;2022-07-03T02:48:21;101564.34;;;12.96;84.96
71805;BME280;59654;52.216;5.616;2022-07-03T02:49:09;101567.03;;;12.96;85.70
71805;BME280;59654;52.216;5.616;2022-07-03T02:49:50;101560.75;;;12.97;85.28
71805;BME280;59654;52.216;5.616;2022-07-03T02:50:25;101564.41;;;12.94;85.70
71805;BME280;59654;52.216;5.616;2022-07-03T02:51:20;101563.53;;;12.94;84.94
71805;BME280;59654;52.216;5.616;2022-07-03T02:54:14;101575.16;;;12.93;85.27
71805;BME280;59654;52.216;5.616;2022-07-03T02:54:47;101573.38;;;12.93;85.29
71805;BME280;59654;52.216;5.616;2022-07-03T02:56:16;101572.63;;;12.90;85.48
71805;BME280;59654;52.216;5.616;2022-07-03T02:57:06;101574.47;;;12.88;85.26
71805;BME280;59654;52.216;5.616;2022-07-03T02:57:39;101580.75;;;12.87;85.07
71805;BME280;59654;52.216;5.616;2022-07-03T02:58:37;101571.03;;;12.84;85.94
71805;BME280;59654;52.216;5.616;2022-07-03T03:00:24;101577.38;;;12.82;86.50
71805;BME280;59654;52.216;5.616;2022-07-03T03:02:06;101579.16;;;12.81;87.08
71805;BME280;59654;52.216;5.616;2022-07-03T03:02:55;101581.91;;;12.80;87.03
71805;BME280;59654;52.216;5.616;2022-07-03T03:03:29;101576.59;;;12.78;87.10
71805;BME280;59654;52.216;5.616;2022-07-03T03:04:19;101582.88;;;12.77;86.90
71805;BME280;59654;52.216;5.616;2022-07-03T03:04:59;101573.09;;;12.76;87.01
71805;BME280;59654;52.216;5.616;2022-07-03T03:05:47;101573.19;;;12.74;86.40
71805;BME280;59654;52.216;5.616;2022-07-03T03:06:21;101573.19;;;12.74;86.99
71805;BME280;59654;52.216;5.616;2022-07-03T03:07:02;101577.66;;;12.74;86.82
71805;BME280;59654;52.216;5.616;2022-07-03T03:08:50;101584.72;;;12.75;87.00
71805;BME280;59654;52.216;5.616;2022-07-03T03:09:40;101583.00;;;12.74;87.20
71805;BME280;59654;52.216;5.616;2022-07-03T03:10:14;101586.63;;;12.73;86.64
71805;BME280;59654;52.216;5.616;2022-07-03T03:10:50;101585.78;;;12.71;86.67
71805;BME280;59654;52.216;5.616;2022-07-03T03:11:41;101585.84;;;12.69;86.82
71805;BME280;59654;52.216;5.616;2022-07-03T03:12:14;101586.66;;;12.71;86.61
71805;BME280;59654;52.216;5.616;2022-07-03T03:12:48;101579.50;;;12.72;86.76
71805;BME280;59654;52.216;5.616;2022-07-03T03:13:30;101590.16;;;12.73;86.70
71805;BME280;59654;52.216;5.616;2022-07-03T03:14:06;101585.59;;;12.75;86.94
71805;BME280;59654;52.216;5.616;2022-07-03T03:14:42;101583.81;;;12.76;87.31
71805;BME280;59654;52.216;5.616;2022-07-03T03:15:14;101588.38;;;12.74;86.75
71805;BME280;59654;52.216;5.616;2022-07-03T03:15:58;101581.25;;;12.73;86.68
71805;BME280;59654;52.216;5.616;2022-07-03T03:16:43;101589.25;;;12.74;86.82
71805;BME280;59654;52.216;5.616;2022-07-03T03:17:24;101582.06;;;12.75;85.92
71805;BME280;59654;52.216;5.616;2022-07-03T03:18:00;101589.25;;;12.74;86.04
71805;BME280;59654;52.216;5.616;2022-07-03T03:18:40;101586.63;;;12.73;86.56
71805;BME280;59654;52.216;5.616;2022-07-03T03:19:12;101587.53;;;12.72;86.51
71805;BME280;59654;52.216;5.616;2022-07-03T03:19:47;101590.28;;;12.70;86.37
71805;BME280;59654;52.216;5.616;2022-07-03T03:20:29;101588.53;;;12.69;86.75
71805;BME280;59654;52.216;5.616;2022-07-03T03:21:08;101588.56;;;12.68;86.68
71805;BME280;59654;52.216;5.616;2022-07-03T03:21:57;101586.91;;;12.64;87.34
71805;BME280;59654;52.216;5.616;2022-07-03T03:22:59;101589.66;;;12.62;86.82
71805;BME280;59654;52.216;5.616;2022-07-03T03:23:56;101580.59;;;12.66;86.70
71805;BME280;59654;52.216;5.616;2022-07-03T03:24:28;101587.69;;;12.67;87.44
71805;BME280;59654;52.216;5.616;2022-07-03T03:25:02;101584.16;;;12.67;87.43
71805;BME280;59654;52.216;5.616;2022-07-03T03:25:33;101581.56;;;12.64;87.22
71805;BME280;59654;52.216;5.616;2022-07-03T03:26:05;101574.47;;;12.63;87.37
71805;BME280;59654;52.216;5.616;2022-07-03T03:26:36;101587.84;;;12.63;87.05
71805;BME280;59654;52.216;5.616;2022-07-03T03:27:08;101583.41;;;12.62;87.16
71805;BME280;59654;52.216;5.616;2022-07-03T03:27:40;101580.78;;;12.60;86.83
71805;BME280;59654;52.216;5.616;2022-07-03T03:28:13;101581.72;;;12.59;87.58
71805;BME280;59654;52.216;5.616;2022-07-03T03:28:45;101586.19;;;12.59;87.23
71805;BME280;59654;52.216;5.616;2022-07-03T03:29:16;101572.72;;;12.62;87.60
71805;BME280;59654;52.216;5.616;2022-07-03T03:29:49;101581.56;;;12.64;87.56
71805;BME280;59654;52.216;5.616;2022-07-03T03:30:20;101577.13;;;12.63;87.88
71805;BME280;59654;52.216;5.616;2022-07-03T03:30:51;101575.38;;;12.62;87.65
71805;BME280;59654;52.216;5.616;2022-07-03T03:31:22;101570.03;;;12.62;87.60
71805;BME280;59654;52.216;5.616;2022-07-03T03:31:53;101575.34;;;12.63;87.89
71805;BME280;59654;52.216;5.616;2022-07-03T03:32:24;101577.97;;;12.65;87.63
71805;BME280;59654;52.216;5.616;2022-07-03T03:32:56;101576.13;;;12.67;88.01
71805;BME280;59654;52.216;5.616;2022-07-03T03:33:27;101573.44;;;12.67;87.58
71805;BME280;59654;52.216;5.616;2022-07-03T03:33:59;101567.16;;;12.68;87.80
71805;BME280;59654;52.216;5.616;2022-07-03T03:34:33;101578.75;;;12.68;87.10
71805;BME280;59654;52.216;5.616;2022-07-03T03:35:05;101576.94;;;12.69;87.03
71805;BME280;59654;52.216;5.616;2022-07-03T03:35:38;101574.31;;;12.67;86.79
71805;BME280;59654;52.216;5.616;2022-07-03T03:36:13;101575.19;;;12.68;86.79
71805;BME280;59654;52.216;5.616;2022-07-03T03:36:44;101569.84;;;12.68;86.12